Nobel, Canada
Current Conditions -  °F | °C
As of 3:00 AM on Saturday 22 Nov 2014 (Local Time) from CYQA Reporting Station
Overcast Overcast  
Wind Chill:   Ceiling: 14000
Heat Index: 19°   Visibility: 9mi
Dew Point: 14°   Wind: 9mph
Humidity: 80%   Direction: 170°S
Pressure: 30.16"   Gusts: NA
Location:  45.41°N, 80.09°W
Report Text: CYQA 220800Z AUTO 17008KT 9SM OVC140 M07/M10 A3016 RMK SLP231
Loading
Personal Weather Stations






























Interactive Weather Map New forecast layout! Learn more

10-Day Weather Forecast

Advertisements
Track Severe Weather on mobile